sensor_id;sensor_type;location;lat;lon;timestamp;pressure;altitude;pressure_sealevel;temperature;humidity
24440;BME280;12618;54.386;18.394;2023-05-02T00:00:33;99382.52;;;10.62;56.00
24440;BME280;12618;54.386;18.394;2023-05-02T00:03:09;99382.19;;;10.61;55.90
24440;BME280;12618;54.386;18.394;2023-05-02T00:05:41;99380.23;;;10.58;55.99
24440;BME280;12618;54.386;18.394;2023-05-02T00:08:13;99379.00;;;10.55;57.55
24440;BME280;12618;54.386;18.394;2023-05-02T00:10:48;99378.61;;;10.49;56.95
24440;BME280;12618;54.386;18.394;2023-05-02T00:13:19;99376.80;;;10.44;56.76
24440;BME280;12618;54.386;18.394;2023-05-02T00:15:51;99374.81;;;10.45;56.86
24440;BME280;12618;54.386;18.394;2023-05-02T00:18:22;99374.56;;;10.43;56.28
24440;BME280;12618;54.386;18.394;2023-05-02T00:20:54;99368.02;;;10.40;56.15
24440;BME280;12618;54.386;18.394;2023-05-02T00:23:27;99363.13;;;10.36;56.16
24440;BME280;12618;54.386;18.394;2023-05-02T00:25:59;99363.91;;;10.35;56.16
24440;BME280;12618;54.386;18.394;2023-05-02T00:28:30;99361.42;;;10.32;56.78
24440;BME280;12618;54.386;18.394;2023-05-02T00:31:03;99358.24;;;10.32;57.45
24440;BME280;12618;54.386;18.394;2023-05-02T00:33:35;99356.74;;;10.34;56.74
24440;BME280;12618;54.386;18.394;2023-05-02T00:36:17;99356.59;;;10.33;57.36
24440;BME280;12618;54.386;18.394;2023-05-02T00:38:49;99348.96;;;10.31;57.58
24440;BME280;12618;54.386;18.394;2023-05-02T00:41:21;99347.61;;;10.27;56.83
24440;BME280;12618;54.386;18.394;2023-05-02T00:43:53;99339.78;;;10.26;57.01
24440;BME280;12618;54.386;18.394;2023-05-02T00:46:24;99336.56;;;10.27;56.68
24440;BME280;12618;54.386;18.394;2023-05-02T00:48:56;99333.73;;;10.27;56.84
24440;BME280;12618;54.386;18.394;2023-05-02T00:51:28;99332.81;;;10.31;57.84
24440;BME280;12618;54.386;18.394;2023-05-02T00:54:00;99329.95;;;10.32;57.51
24440;BME280;12618;54.386;18.394;2023-05-02T00:56:33;99330.48;;;10.31;56.60
24440;BME280;12618;54.386;18.394;2023-05-02T00:59:06;99325.34;;;10.33;57.51
24440;BME280;12618;54.386;18.394;2023-05-02T01:08:02;99319.38;;;10.29;57.43
24440;BME280;12618;54.386;18.394;2023-05-02T01:10:37;99317.02;;;10.30;57.20
24440;BME280;12618;54.386;18.394;2023-05-02T01:13:24;99315.02;;;10.32;57.03
24440;BME280;12618;54.386;18.394;2023-05-02T01:16:00;99315.06;;;10.34;58.16
24440;BME280;12618;54.386;18.394;2023-05-02T01:18:37;99308.52;;;10.35;57.76
24440;BME280;12618;54.386;18.394;2023-05-02T01:21:11;99314.52;;;10.38;57.73
24440;BME280;12618;54.386;18.394;2023-05-02T01:24:04;99317.36;;;10.37;57.57
24440;BME280;12618;54.386;18.394;2023-05-02T01:29:53;99313.64;;;10.25;57.35
24440;BME280;12618;54.386;18.394;2023-05-02T01:32:32;99309.09;;;10.24;58.58
24440;BME280;12618;54.386;18.394;2023-05-02T01:35:05;99307.98;;;10.21;58.25
24440;BME280;12618;54.386;18.394;2023-05-02T01:37:39;99309.02;;;10.18;58.57
24440;BME280;12618;54.386;18.394;2023-05-02T01:40:19;99306.90;;;10.15;58.64
24440;BME280;12618;54.386;18.394;2023-05-02T01:42:51;99303.44;;;10.17;59.33
24440;BME280;12618;54.386;18.394;2023-05-02T01:45:24;99303.01;;;10.23;59.69
24440;BME280;12618;54.386;18.394;2023-05-02T01:47:57;99304.55;;;10.23;59.92
24440;BME280;12618;54.386;18.394;2023-05-02T01:50:28;99294.95;;;10.26;59.92
24440;BME280;12618;54.386;18.394;2023-05-02T01:53:02;99295.96;;;10.27;59.79
24440;BME280;12618;54.386;18.394;2023-05-02T01:55:35;99297.00;;;10.30;58.75
24440;BME280;12618;54.386;18.394;2023-05-02T01:58:10;99289.97;;;10.33;59.59
24440;BME280;12618;54.386;18.394;2023-05-02T02:00:43;99291.73;;;10.36;59.15
24440;BME280;12618;54.386;18.394;2023-05-02T02:03:16;99290.23;;;10.38;59.72
24440;BME280;12618;54.386;18.394;2023-05-02T02:05:51;99284.58;;;10.38;58.56
24440;BME280;12618;54.386;18.394;2023-05-02T02:08:24;99284.40;;;10.38;58.99
24440;BME280;12618;54.386;18.394;2023-05-02T02:11:03;99283.83;;;10.36;59.19
24440;BME280;12618;54.386;18.394;2023-05-02T02:13:45;99277.52;;;10.36;59.15
24440;BME280;12618;54.386;18.394;2023-05-02T02:16:24;99277.85;;;10.33;58.08
24440;BME280;12618;54.386;18.394;2023-05-02T02:19:04;99275.15;;;10.31;59.29
24440;BME280;12618;54.386;18.394;2023-05-02T02:21:39;99270.93;;;10.31;59.67
24440;BME280;12618;54.386;18.394;2023-05-02T02:24:13;99269.66;;;10.28;59.36
24440;BME280;12618;54.386;18.394;2023-05-02T02:26:47;99271.41;;;10.25;59.66
24440;BME280;12618;54.386;18.394;2023-05-02T02:29:18;99271.67;;;10.24;60.62
24440;BME280;12618;54.386;18.394;2023-05-02T02:31:50;99272.76;;;10.23;60.25
24440;BME280;12618;54.386;18.394;2023-05-02T02:34:21;99271.81;;;10.20;60.07
24440;BME280;12618;54.386;18.394;2023-05-02T02:37:15;99266.62;;;10.15;59.90
24440;BME280;12618;54.386;18.394;2023-05-02T02:39:56;99266.70;;;10.07;60.75
24440;BME280;12618;54.386;18.394;2023-05-02T02:42:44;99269.96;;;10.02;61.13
24440;BME280;12618;54.386;18.394;2023-05-02T02:53:49;99264.62;;;9.83;61.06
24440;BME280;12618;54.386;18.394;2023-05-02T02:56:28;99264.91;;;9.78;60.89
24440;BME280;12618;54.386;18.394;2023-05-02T02:59:25;99260.41;;;9.73;61.75
24440;BME280;12618;54.386;18.394;2023-05-02T03:02:08;99258.66;;;9.70;60.85
24440;BME280;12618;54.386;18.394;2023-05-02T03:04:45;99257.50;;;9.68;61.92
24440;BME280;12618;54.386;18.394;2023-05-02T03:07:17;99254.91;;;9.67;62.62
24440;BME280;12618;54.386;18.394;2023-05-02T03:09:49;99257.66;;;9.65;63.39
24440;BME280;12618;54.386;18.394;2023-05-02T03:12:20;99257.52;;;9.65;62.24
24440;BME280;12618;54.386;18.394;2023-05-02T03:14:56;99256.10;;;9.68;62.20
24440;BME280;12618;54.386;18.394;2023-05-02T03:17:30;99255.05;;;9.72;63.45
24440;BME280;12618;54.386;18.394;2023-05-02T03:20:05;99257.48;;;9.75;63.93
24440;BME280;12618;54.386;18.394;2023-05-02T03:22:37;99258.67;;;9.79;63.33
24440;BME280;12618;54.386;18.394;2023-05-02T03:25:08;99264.60;;;9.87;63.04
24440;BME280;12618;54.386;18.394;2023-05-02T03:27:40;99266.00;;;9.87;61.78
24440;BME280;12618;54.386;18.394;2023-05-02T03:30:12;99267.90;;;9.84;62.01
24440;BME280;12618;54.386;18.394;2023-05-02T03:32:44;99267.11;;;9.83;62.77
24440;BME280;12618;54.386;18.394;2023-05-02T03:35:16;99264.92;;;9.84;63.48
24440;BME280;12618;54.386;18.394;2023-05-02T03:37:48;99267.00;;;9.91;62.77
24440;BME280;12618;54.386;18.394;2023-05-02T03:40:21;99262.89;;;9.96;62.71
24440;BME280;12618;54.386;18.394;2023-05-02T03:42:52;99264.34;;;9.95;62.55
24440;BME280;12618;54.386;18.394;2023-05-02T03:45:26;99268.55;;;9.99;63.04
24440;BME280;12618;54.386;18.394;2023-05-02T03:47:58;99268.23;;;10.04;63.36
24440;BME280;12618;54.386;18.394;2023-05-02T03:50:30;99266.52;;;10.11;63.13
24440;BME280;12618;54.386;18.394;2023-05-02T03:53:07;99266.71;;;10.13;62.21
24440;BME280;12618;54.386;18.394;2023-05-02T03:55:43;99270.97;;;10.16;61.89
24440;BME280;12618;54.386;18.394;2023-05-02T03:58:15;99272.54;;;10.16;62.72
24440;BME280;12618;54.386;18.394;2023-05-02T04:00:49;99273.05;;;10.20;62.23
24440;BME280;12618;54.386;18.394;2023-05-02T04:03:21;99268.10;;;10.25;61.36
24440;BME280;12618;54.386;18.394;2023-05-02T04:05:55;99268.86;;;10.30;60.82
24440;BME280;12618;54.386;18.394;2023-05-02T04:08:26;99274.27;;;10.34;61.98
24440;BME280;12618;54.386;18.394;2023-05-02T04:10:58;99273.35;;;10.38;61.58
24440;BME280;12618;54.386;18.394;2023-05-02T04:13:29;99273.32;;;10.39;61.49
24440;BME280;12618;54.386;18.394;2023-05-02T04:16:01;99273.33;;;10.41;61.80
24440;BME280;12618;54.386;18.394;2023-05-02T04:18:33;99272.71;;;10.43;61.73
24440;BME280;12618;54.386;18.394;2023-05-02T04:21:06;99276.65;;;10.45;61.77
24440;BME280;12618;54.386;18.394;2023-05-02T04:23:42;99281.52;;;10.46;61.77
24440;BME280;12618;54.386;18.394;2023-05-02T04:26:13;99284.30;;;10.50;61.45
24440;BME280;12618;54.386;18.394;2023-05-02T04:28:45;99290.11;;;10.56;61.71
24440;BME280;12618;54.386;18.394;2023-05-02T04:31:17;99290.80;;;10.63;61.36
24440;BME280;12618;54.386;18.394;2023-05-02T04:33:48;99290.48;;;10.69;61.68
24440;BME280;12618;54.386;18.394;2023-05-02T04:36:25;99286.13;;;10.77;61.14
24440;BME280;12618;54.386;18.394;2023-05-02T04:38:58;99288.16;;;10.88;60.71
24440;BME280;12618;54.386;18.394;2023-05-02T04:41:30;99287.19;;;10.99;60.47
24440;BME280;12618;54.386;18.394;2023-05-02T04:44:02;99286.80;;;11.06;60.63
24440;BME280;12618;54.386;18.394;2023-05-02T04:46:34;99292.04;;;11.13;61.01
24440;BME280;12618;54.386;18.394;2023-05-02T04:49:05;99288.88;;;11.22;60.80
24440;BME280;12618;54.386;18.394;2023-05-02T04:51:37;99291.52;;;11.31;60.66
24440;BME280;12618;54.386;18.394;2023-05-02T04:54:08;99290.48;;;11.37;60.40
24440;BME280;12618;54.386;18.394;2023-05-02T04:56:40;99291.70;;;11.46;60.84
24440;BME280;12618;54.386;18.394;2023-05-02T04:59:12;99292.02;;;11.52;59.93
24440;BME280;12618;54.386;18.394;2023-05-02T05:01:44;99295.85;;;11.59;60.06
24440;BME280;12618;54.386;18.394;2023-05-02T05:04:16;99292.95;;;11.63;59.09
24440;BME280;12618;54.386;18.394;2023-05-02T05:06:48;99298.29;;;11.66;58.77
24440;BME280;12618;54.386;18.394;2023-05-02T05:09:19;99295.70;;;11.68;58.82
24440;BME280;12618;54.386;18.394;2023-05-02T05:11:51;99294.46;;;11.71;59.06
24440;BME280;12618;54.386;18.394;2023-05-02T05:14:24;99294.23;;;11.72;59.16
24440;BME280;12618;54.386;18.394;2023-05-02T05:16:55;99292.95;;;11.73;59.23
24440;BME280;12618;54.386;18.394;2023-05-02T05:19:28;99295.36;;;11.77;59.06
24440;BME280;12618;54.386;18.394;2023-05-02T05:22:00;99297.80;;;11.84;59.23
24440;BME280;12618;54.386;18.394;2023-05-02T05:24:31;99297.19;;;11.96;59.07
24440;BME280;12618;54.386;18.394;2023-05-02T05:27:03;99303.80;;;12.10;59.09
24440;BME280;12618;54.386;18.394;2023-05-02T05:29:34;99301.80;;;12.19;58.07
24440;BME280;12618;54.386;18.394;2023-05-02T05:32:06;99301.80;;;12.25;57.67
24440;BME280;12618;54.386;18.394;2023-05-02T05:34:38;99302.38;;;12.33;57.86
24440;BME280;12618;54.386;18.394;2023-05-02T05:37:09;99302.17;;;12.39;57.61
24440;BME280;12618;54.386;18.394;2023-05-02T05:39:41;99305.92;;;12.41;56.63
24440;BME280;12618;54.386;18.394;2023-05-02T05:42:13;99307.65;;;12.45;57.02
24440;BME280;12618;54.386;18.394;2023-05-02T05:44:44;99311.63;;;12.49;56.56
24440;BME280;12618;54.386;18.394;2023-05-02T05:47:18;99315.50;;;12.52;56.74
24440;BME280;12618;54.386;18.394;2023-05-02T05:49:53;99320.22;;;12.52;56.51
24440;BME280;12618;54.386;18.394;2023-05-02T05:52:25;99322.05;;;12.54;56.95
24440;BME280;12618;54.386;18.394;2023-05-02T05:54:57;99324.64;;;12.58;57.14
24440;BME280;12618;54.386;18.394;2023-05-02T05:57:28;99325.30;;;12.61;57.52
24440;BME280;12618;54.386;18.394;2023-05-02T06:00:00;99327.67;;;12.66;57.84
24440;BME280;12618;54.386;18.394;2023-05-02T06:02:35;99327.45;;;12.69;57.48
24440;BME280;12618;54.386;18.394;2023-05-02T06:05:09;99329.65;;;12.73;57.53
24440;BME280;12618;54.386;18.394;2023-05-02T06:07:41;99333.41;;;12.81;57.99
24440;BME280;12618;54.386;18.394;2023-05-02T06:10:12;99338.71;;;12.89;57.78
24440;BME280;12618;54.386;18.394;2023-05-02T06:12:44;99339.70;;;12.98;57.89
24440;BME280;12618;54.386;18.394;2023-05-02T06:15:18;99334.19;;;13.04;57.17
24440;BME280;12618;54.386;18.394;2023-05-02T06:17:50;99331.96;;;13.09;57.32
24440;BME280;12618;54.386;18.394;2023-05-02T06:20:22;99340.35;;;13.17;57.62
24440;BME280;12618;54.386;18.394;2023-05-02T06:22:53;99342.23;;;13.20;57.20
24440;BME280;12618;54.386;18.394;2023-05-02T06:25:25;99342.77;;;13.23;57.78
24440;BME280;12618;54.386;18.394;2023-05-02T06:27:57;99343.70;;;13.20;57.57
24440;BME280;12618;54.386;18.394;2023-05-02T06:30:28;99347.86;;;13.15;57.54
24440;BME280;12618;54.386;18.394;2023-05-02T06:33:03;99349.17;;;13.20;57.70
24440;BME280;12618;54.386;18.394;2023-05-02T06:35:34;99348.14;;;13.27;57.73
24440;BME280;12618;54.386;18.394;2023-05-02T06:38:06;99352.64;;;13.37;57.65
24440;BME280;12618;54.386;18.394;2023-05-02T06:40:37;99359.85;;;13.48;57.23
24440;BME280;12618;54.386;18.394;2023-05-02T06:43:16;99364.79;;;13.59;57.32
24440;BME280;12618;54.386;18.394;2023-05-02T06:45:47;99366.09;;;13.66;57.60
24440;BME280;12618;54.386;18.394;2023-05-02T06:48:19;99367.88;;;13.71;57.47
24440;BME280;12618;54.386;18.394;2023-05-02T06:50:58;99368.42;;;13.73;57.91
24440;BME280;12618;54.386;18.394;2023-05-02T06:53:33;99368.06;;;13.84;57.87
24440;BME280;12618;54.386;18.394;2023-05-02T06:56:05;99367.34;;;14.00;56.96
24440;BME280;12618;54.386;18.394;2023-05-02T06:58:37;99370.77;;;14.10;56.25
24440;BME280;12618;54.386;18.394;2023-05-02T07:01:10;99378.48;;;14.18;57.13
24440;BME280;12618;54.386;18.394;2023-05-02T07:03:45;99384.24;;;14.14;56.31
24440;BME280;12618;54.386;18.394;2023-05-02T07:06:20;99385.48;;;14.17;56.61
24440;BME280;12618;54.386;18.394;2023-05-02T07:08:52;99383.80;;;14.21;56.84
24440;BME280;12618;54.386;18.394;2023-05-02T07:11:24;99384.08;;;14.50;57.04
24440;BME280;12618;54.386;18.394;2023-05-02T07:14:00;99383.28;;;14.70;56.37
24440;BME280;12618;54.386;18.394;2023-05-02T07:16:31;99388.96;;;14.94;55.04
24440;BME280;12618;54.386;18.394;2023-05-02T07:19:03;99392.44;;;15.22;55.76
24440;BME280;12618;54.386;18.394;2023-05-02T07:21:37;99396.82;;;15.52;54.78
24440;BME280;12618;54.386;18.394;2023-05-02T07:24:08;99396.25;;;16.19;53.30
24440;BME280;12618;54.386;18.394;2023-05-02T07:26:40;99398.91;;;16.56;52.58
24440;BME280;12618;54.386;18.394;2023-05-02T07:29:12;99403.52;;;16.86;51.74
24440;BME280;12618;54.386;18.394;2023-05-02T07:31:44;99397.63;;;17.35;50.48
24440;BME280;12618;54.386;18.394;2023-05-02T07:34:15;99404.59;;;17.95;50.66
24440;BME280;12618;54.386;18.394;2023-05-02T07:36:47;99403.80;;;18.92;46.22
24440;BME280;12618;54.386;18.394;2023-05-02T07:39:18;99404.88;;;20.28;48.38
24440;BME280;12618;54.386;18.394;2023-05-02T07:41:52;99405.88;;;21.56;42.42
24440;BME280;12618;54.386;18.394;2023-05-02T07:44:23;99408.31;;;22.06;38.43
24440;BME280;12618;54.386;18.394;2023-05-02T07:46:55;99414.60;;;22.34;36.59
24440;BME280;12618;54.386;18.394;2023-05-02T07:49:27;99420.67;;;22.16;35.28
24440;BME280;12618;54.386;18.394;2023-05-02T07:51:58;99423.96;;;21.91;35.67
24440;BME280;12618;54.386;18.394;2023-05-02T07:54:30;99430.37;;;21.80;35.31
24440;BME280;12618;54.386;18.394;2023-05-02T07:57:02;99434.01;;;21.67;35.23
24440;BME280;12618;54.386;18.394;2023-05-02T07:59:35;99436.20;;;21.88;36.14
24440;BME280;12618;54.386;18.394;2023-05-02T08:02:07;99442.16;;;22.60;34.69
24440;BME280;12618;54.386;18.394;2023-05-02T08:04:39;99444.75;;;22.98;32.49
24440;BME280;12618;54.386;18.394;2023-05-02T08:07:11;99442.80;;;23.37;31.89
24440;BME280;12618;54.386;18.394;2023-05-02T08:09:42;99438.11;;;23.63;31.85
24440;BME280;12618;54.386;18.394;2023-05-02T08:12:14;99440.50;;;23.77;30.35
24440;BME280;12618;54.386;18.394;2023-05-02T08:14:45;99445.73;;;24.09;29.71
24440;BME280;12618;54.386;18.394;2023-05-02T08:17:18;99448.02;;;24.50;29.13
24440;BME280;12618;54.386;18.394;2023-05-02T08:19:51;99454.17;;;24.82;27.93
24440;BME280;12618;54.386;18.394;2023-05-02T08:22:23;99451.97;;;25.18;28.12
24440;BME280;12618;54.386;18.394;2023-05-02T08:24:55;99457.52;;;25.47;28.14
24440;BME280;12618;54.386;18.394;2023-05-02T08:27:29;99461.06;;;25.16;25.98
24440;BME280;12618;54.386;18.394;2023-05-02T08:30:01;99459.08;;;25.27;27.27
24440;BME280;12618;54.386;18.394;2023-05-02T08:32:35;99461.88;;;25.40;27.05
24440;BME280;12618;54.386;18.394;2023-05-02T08:35:08;99466.96;;;25.85;27.06
24440;BME280;12618;54.386;18.394;2023-05-02T08:37:40;99469.52;;;25.79;26.64
24440;BME280;12618;54.386;18.394;2023-05-02T08:40:13;99479.41;;;25.46;26.06
24440;BME280;12618;54.386;18.394;2023-05-02T08:43:04;99473.59;;;25.22;25.93
24440;BME280;12618;54.386;18.394;2023-05-02T08:45:42;99471.09;;;25.07;26.73
24440;BME280;12618;54.386;18.394;2023-05-02T08:48:15;99479.00;;;25.35;26.17
24440;BME280;12618;54.386;18.394;2023-05-02T08:50:50;99479.40;;;25.56;26.11
24440;BME280;12618;54.386;18.394;2023-05-02T08:53:24;99476.36;;;26.05;26.74
24440;BME280;12618;54.386;18.394;2023-05-02T08:55:57;99484.85;;;25.77;25.37
24440;BME280;12618;54.386;18.394;2023-05-02T08:58:30;99491.89;;;25.77;25.79
24440;BME280;12618;54.386;18.394;2023-05-02T09:01:08;99497.14;;;25.47;26.03
24440;BME280;12618;54.386;18.394;2023-05-02T09:03:42;99503.36;;;25.44;26.43
24440;BME280;12618;54.386;18.394;2023-05-02T09:06:15;99512.86;;;25.30;27.35
24440;BME280;12618;54.386;18.394;2023-05-02T09:08:49;99510.14;;;25.66;27.39
24440;BME280;12618;54.386;18.394;2023-05-02T09:11:21;99515.77;;;25.19;26.86
24440;BME280;12618;54.386;18.394;2023-05-02T09:13:52;99520.30;;;24.67;27.59
24440;BME280;12618;54.386;18.394;2023-05-02T09:16:25;99527.92;;;24.79;28.36
24440;BME280;12618;54.386;18.394;2023-05-02T09:18:58;99527.98;;;24.48;28.37
24440;BME280;12618;54.386;18.394;2023-05-02T09:21:39;99526.80;;;24.45;28.99
24440;BME280;12618;54.386;18.394;2023-05-02T09:24:16;99525.70;;;24.29;29.70
24440;BME280;12618;54.386;18.394;2023-05-02T09:26:59;99529.02;;;24.28;30.05
24440;BME280;12618;54.386;18.394;2023-05-02T09:29:32;99533.17;;;23.76;30.63
24440;BME280;12618;54.386;18.394;2023-05-02T09:32:09;99543.81;;;22.66;31.44
24440;BME280;12618;54.386;18.394;2023-05-02T09:35:04;99551.61;;;21.62;33.37
24440;BME280;12618;54.386;18.394;2023-05-02T09:37:36;99552.56;;;20.61;36.40
24440;BME280;12618;54.386;18.394;2023-05-02T09:40:09;99554.42;;;20.07;38.68
24440;BME280;12618;54.386;18.394;2023-05-02T09:42:41;99556.70;;;19.71;39.51
24440;BME280;12618;54.386;18.394;2023-05-02T09:45:20;99577.35;;;19.29;41.12
24440;BME280;12618;54.386;18.394;2023-05-02T09:47:52;99579.98;;;18.71;42.50
24440;BME280;12618;54.386;18.394;2023-05-02T09:50:34;99582.02;;;18.31;43.12
24440;BME280;12618;54.386;18.394;2023-05-02T09:53:09;99589.13;;;18.05;45.83
24440;BME280;12618;54.386;18.394;2023-05-02T09:55:42;99595.34;;;17.90;48.89
24440;BME280;12618;54.386;18.394;2023-05-02T09:58:23;99601.91;;;18.16;48.08
24440;BME280;12618;54.386;18.394;2023-05-02T10:00:55;99604.11;;;17.96;49.97
24440;BME280;12618;54.386;18.394;2023-05-02T10:03:27;99610.98;;;17.81;51.16
24440;BME280;12618;54.386;18.394;2023-05-02T10:05:59;99613.13;;;17.74;51.82
24440;BME280;12618;54.386;18.394;2023-05-02T10:08:32;99615.05;;;17.92;51.36
24440;BME280;12618;54.386;18.394;2023-05-02T10:11:06;99616.50;;;18.03;50.75
24440;BME280;12618;54.386;18.394;2023-05-02T10:13:39;99617.76;;;18.01;51.27
24440;BME280;12618;54.386;18.394;2023-05-02T10:16:15;99616.04;;;18.38;50.67
24440;BME280;12618;54.386;18.394;2023-05-02T10:21:33;99612.48;;;18.74;50.41
24440;BME280;12618;54.386;18.394;2023-05-02T10:24:05;99615.01;;;18.95;49.44
24440;BME280;12618;54.386;18.394;2023-05-02T10:26:37;99628.61;;;18.79;49.13
24440;BME280;12618;54.386;18.394;2023-05-02T10:29:10;99635.96;;;18.38;49.80
24440;BME280;12618;54.386;18.394;2023-05-02T10:31:42;99643.63;;;17.89;51.32
24440;BME280;12618;54.386;18.394;2023-05-02T10:34:17;99642.54;;;17.51;52.42
24440;BME280;12618;54.386;18.394;2023-05-02T10:36:54;99638.41;;;17.24;54.71
24440;BME280;12618;54.386;18.394;2023-05-02T10:39:27;99640.80;;;17.64;56.05
24440;BME280;12618;54.386;18.394;2023-05-02T10:42:02;99648.20;;;18.14;55.08
24440;BME280;12618;54.386;18.394;2023-05-02T10:44:36;99652.50;;;18.20;52.60
24440;BME280;12618;54.386;18.394;2023-05-02T10:47:24;99654.55;;;18.19;51.47
24440;BME280;12618;54.386;18.394;2023-05-02T10:50:01;99655.55;;;18.21;51.98
24440;BME280;12618;54.386;18.394;2023-05-02T10:52:35;99658.99;;;18.04;53.24
24440;BME280;12618;54.386;18.394;2023-05-02T10:55:19;99665.94;;;17.84;53.93
24440;BME280;12618;54.386;18.394;2023-05-02T11:00:31;99672.31;;;17.52;54.44
24440;BME280;12618;54.386;18.394;2023-05-02T11:03:03;99676.36;;;17.13;55.54
24440;BME280;12618;54.386;18.394;2023-05-02T11:06:05;99677.49;;;16.87;56.24
24440;BME280;12618;54.386;18.394;2023-05-02T11:08:38;99691.14;;;16.60;58.41
24440;BME280;12618;54.386;18.394;2023-05-02T11:14:02;99701.28;;;16.09;62.93
24440;BME280;12618;54.386;18.394;2023-05-02T11:24:49;99724.94;;;15.09;71.77
24440;BME280;12618;54.386;18.394;2023-05-02T11:30:08;99739.85;;;15.06;70.48
24440;BME280;12618;54.386;18.394;2023-05-02T11:35:26;99768.55;;;14.60;77.60
24440;BME280;12618;54.386;18.394;2023-05-02T11:40:31;99775.90;;;14.01;82.64
24440;BME280;12618;54.386;18.394;2023-05-02T11:43:13;99781.60;;;13.83;83.57
24440;BME280;12618;54.386;18.394;2023-05-02T11:45:48;99781.27;;;13.79;84.31
24440;BME280;12618;54.386;18.394;2023-05-02T11:48:21;99786.58;;;13.89;82.64
24440;BME280;12618;54.386;18.394;2023-05-02T11:50:54;99798.02;;;13.86;82.63
24440;BME280;12618;54.386;18.394;2023-05-02T11:53:27;99802.23;;;13.81;82.93
24440;BME280;12618;54.386;18.394;2023-05-02T11:56:03;99807.96;;;13.80;82.97
24440;BME280;12618;54.386;18.394;2023-05-02T11:58:35;99813.48;;;13.79;83.71
24440;BME280;12618;54.386;18.394;2023-05-02T12:01:11;99819.92;;;13.75;82.53
24440;BME280;12618;54.386;18.394;2023-05-02T12:03:44;99826.57;;;13.64;82.51
24440;BME280;12618;54.386;18.394;2023-05-02T12:06:20;99830.52;;;13.48;82.81
24440;BME280;12618;54.386;18.394;2023-05-02T12:09:05;99838.84;;;13.30;81.71
24440;BME280;12618;54.386;18.394;2023-05-02T12:11:37;99845.34;;;13.08;82.64
24440;BME280;12618;54.386;18.394;2023-05-02T12:14:09;99849.39;;;12.83;85.10
24440;BME280;12618;54.386;18.394;2023-05-02T12:16:41;99859.31;;;12.63;86.32
24440;BME280;12618;54.386;18.394;2023-05-02T12:19:13;99865.88;;;12.43;86.52
24440;BME280;12618;54.386;18.394;2023-05-02T12:21:47;99864.98;;;12.29;86.97
24440;BME280;12618;54.386;18.394;2023-05-02T12:24:19;99871.16;;;12.19;86.50
24440;BME280;12618;54.386;18.394;2023-05-02T12:27:10;99877.20;;;12.12;85.43
24440;BME280;12618;54.386;18.394;2023-05-02T12:29:45;99881.96;;;12.08;86.73
24440;BME280;12618;54.386;18.394;2023-05-02T12:32:32;99883.45;;;12.14;85.99
24440;BME280;12618;54.386;18.394;2023-05-02T12:35:20;99883.48;;;12.20;86.08
24440;BME280;12618;54.386;18.394;2023-05-02T12:38:06;99886.11;;;12.37;85.80
24440;BME280;12618;54.386;18.394;2023-05-02T12:40:49;99891.48;;;12.69;84.70
24440;BME280;12618;54.386;18.394;2023-05-02T12:43:21;99899.60;;;12.69;82.80
24440;BME280;12618;54.386;18.394;2023-05-02T12:46:08;99906.66;;;12.56;82.24
24440;BME280;12618;54.386;18.394;2023-05-02T12:48:40;99911.02;;;12.36;81.98
24440;BME280;12618;54.386;18.394;2023-05-02T12:51:21;99915.84;;;12.18;81.46
24440;BME280;12618;54.386;18.394;2023-05-02T12:53:59;99923.92;;;12.02;81.33
24440;BME280;12618;54.386;18.394;2023-05-02T12:56:40;99926.44;;;11.87;81.80
24440;BME280;12618;54.386;18.394;2023-05-02T12:59:46;99929.67;;;11.79;81.51
24440;BME280;12618;54.386;18.394;2023-05-02T13:02:24;99926.77;;;11.77;81.51
24440;BME280;12618;54.386;18.394;2023-05-02T13:04:56;99932.84;;;11.82;81.98
24440;BME280;12618;54.386;18.394;2023-05-02T13:07:27;99927.25;;;11.98;81.82
24440;BME280;12618;54.386;18.394;2023-05-02T13:10:05;99927.68;;;12.15;80.60
24440;BME280;12618;54.386;18.394;2023-05-02T13:12:42;99937.06;;;12.42;77.60
24440;BME280;12618;54.386;18.394;2023-05-02T13:15:18;99933.13;;;12.56;74.40
24440;BME280;12618;54.386;18.394;2023-05-02T13:17:50;99940.92;;;12.62;72.55
24440;BME280;12618;54.386;18.394;2023-05-02T13:20:25;99940.49;;;12.70;71.06
24440;BME280;12618;54.386;18.394;2023-05-02T13:22:57;99945.39;;;12.74;69.56
24440;BME280;12618;54.386;18.394;2023-05-02T13:25:28;99953.89;;;12.80;68.86
24440;BME280;12618;54.386;18.394;2023-05-02T13:28:00;99956.09;;;12.79;70.67
24440;BME280;12618;54.386;18.394;2023-05-02T13:30:32;99964.27;;;12.81;70.80
24440;BME280;12618;54.386;18.394;2023-05-02T13:33:04;99963.50;;;12.79;71.30
24440;BME280;12618;54.386;18.394;2023-05-02T13:35:35;99974.70;;;12.78;70.37
24440;BME280;12618;54.386;18.394;2023-05-02T13:38:07;99979.54;;;12.73;70.52
24440;BME280;12618;54.386;18.394;2023-05-02T13:40:39;99977.58;;;12.73;70.28
24440;BME280;12618;54.386;18.394;2023-05-02T13:43:10;99979.30;;;12.77;69.19
24440;BME280;12618;54.386;18.394;2023-05-02T13:45:43;99981.92;;;12.78;68.18
24440;BME280;12618;54.386;18.394;2023-05-02T13:48:15;99984.84;;;12.76;67.70
24440;BME280;12618;54.386;18.394;2023-05-02T13:50:46;99981.20;;;12.94;67.29
24440;BME280;12618;54.386;18.394;2023-05-02T13:53:18;99986.86;;;13.24;67.20
24440;BME280;12618;54.386;18.394;2023-05-02T13:55:50;99993.29;;;13.36;65.38
24440;BME280;12618;54.386;18.394;2023-05-02T13:58:21;99996.19;;;13.15;64.93
24440;BME280;12618;54.386;18.394;2023-05-02T14:00:53;100003.31;;;12.94;64.70
24440;BME280;12618;54.386;18.394;2023-05-02T14:03:25;100003.95;;;12.75;65.51
24440;BME280;12618;54.386;18.394;2023-05-02T14:05:57;100012.20;;;12.63;64.13
24440;BME280;12618;54.386;18.394;2023-05-02T14:08:29;100015.98;;;12.48;62.81